createdAt,value
2023-03-12T00:01:23.145Z,99420.13
2023-03-12T00:03:52.143Z,99421.67
2023-03-12T00:06:21.364Z,99424.13
2023-03-12T00:08:49.432Z,99429.74
2023-03-12T00:11:19.304Z,99436.70
2023-03-12T00:13:56.044Z,99443.74
2023-03-12T00:16:24.432Z,99448.98
2023-03-12T00:18:54.327Z,99455.48
2023-03-12T00:21:23.579Z,99461.30
2023-03-12T00:23:52.492Z,99469.48
2023-03-12T00:26:21.490Z,99472.42
2023-03-12T00:28:51.136Z,99478.08
2023-03-12T00:31:24.306Z,99484.46
2023-03-12T00:33:52.200Z,99491.73
2023-03-12T00:36:24.819Z,99497.21
2023-03-12T00:38:54.357Z,99503.66
2023-03-12T00:41:23.045Z,99507.02
2023-03-12T00:43:51.848Z,99510.12
2023-03-12T00:46:19.930Z,99510.61
2023-03-12T00:48:47.974Z,99512.80
2023-03-12T00:51:16.345Z,99520.36
2023-03-12T00:53:44.348Z,99523.67
2023-03-12T00:56:12.382Z,99528.27
2023-03-12T00:58:42.902Z,99528.12
2023-03-12T01:01:11.211Z,99518.41
2023-03-12T01:03:39.780Z,99517.77
2023-03-12T01:06:08.233Z,99521.83
2023-03-12T01:08:36.789Z,99524.15
2023-03-12T01:11:05.746Z,99531.06
2023-03-12T01:13:33.691Z,99541.13
2023-03-12T01:16:01.827Z,99545.05
2023-03-12T01:18:29.929Z,99545.45
2023-03-12T01:20:58.168Z,99546.59
2023-03-12T01:23:26.526Z,99548.35
2023-03-12T01:25:55.684Z,99548.95
2023-03-12T01:28:24.913Z,99548.61
2023-03-12T01:30:53.579Z,99548.64
2023-03-12T01:33:23.032Z,99553.88
2023-03-12T01:35:51.257Z,99557.09
2023-03-12T01:38:21.026Z,99558.22
2023-03-12T01:40:49.420Z,99555.73
2023-03-12T01:43:25.204Z,99557.96
2023-03-12T01:46:05.397Z,99561.77
2023-03-12T01:48:42.504Z,99560.67
2023-03-12T01:51:13.830Z,99565.59
2023-03-12T01:53:47.903Z,99572.86
2023-03-12T01:56:19.551Z,99575.60
2023-03-12T01:59:00.740Z,99578.48
2023-03-12T02:01:30.580Z,99582.40
2023-03-12T02:04:00.956Z,99586.60
2023-03-12T02:06:37.201Z,99585.88
2023-03-12T02:09:07.451Z,99587.98
2023-03-12T02:11:35.753Z,99587.13
2023-03-12T02:14:03.919Z,99589.86
2023-03-12T02:16:32.996Z,99591.42
2023-03-12T02:19:02.352Z,99593.20
2023-03-12T02:21:34.147Z,99593.71
2023-03-12T02:24:15.731Z,99596.52
2023-03-12T02:26:43.756Z,99600.38
2023-03-12T02:29:12.863Z,99597.79
2023-03-12T02:31:52.075Z,99599.31
2023-03-12T02:34:20.471Z,99600.13
2023-03-12T02:36:49.729Z,99602.91
2023-03-12T02:39:19.636Z,99608.02
2023-03-12T02:41:57.887Z,99606.88
2023-03-12T02:44:31.835Z,99610.49
2023-03-12T02:47:01.603Z,99615.29
2023-03-12T02:49:32.763Z,99615.71
2023-03-12T02:52:01.450Z,99622.59
2023-03-12T02:54:30.516Z,99623.34
2023-03-12T02:56:58.544Z,99625.56
2023-03-12T02:59:27.001Z,99631.93
2023-03-12T03:01:59.296Z,99634.17
2023-03-12T03:04:30.616Z,99631.60
2023-03-12T03:06:58.749Z,99634.30
2023-03-12T03:09:27.332Z,99639.52
2023-03-12T03:11:55.489Z,99649.15
2023-03-12T03:14:23.879Z,99647.29
2023-03-12T03:16:52.235Z,99650.38
2023-03-12T03:19:21.367Z,99654.68
2023-03-12T03:21:49.507Z,99661.27
2023-03-12T03:24:17.336Z,99665.37
2023-03-12T03:26:45.309Z,99668.05
2023-03-12T03:29:13.244Z,99671.84
2023-03-12T03:31:41.217Z,99672.29
2023-03-12T03:34:09.217Z,99675.58
2023-03-12T03:36:37.179Z,99680.40
2023-03-12T03:39:09.721Z,99683.58
2023-03-12T03:41:37.616Z,99686.83
2023-03-12T03:44:08.034Z,99689.27
2023-03-12T03:46:36.706Z,99690.61
2023-03-12T03:49:06.956Z,99691.27
2023-03-12T03:51:35.368Z,99692.34
2023-03-12T03:54:07.215Z,99693.33
2023-03-12T03:56:35.473Z,99696.74
2023-03-12T03:59:04.774Z,99700.03
2023-03-12T04:01:33.974Z,99702.46
2023-03-12T04:04:03.410Z,99705.92
2023-03-12T04:06:32.706Z,99708.21
2023-03-12T04:09:00.676Z,99708.27
2023-03-12T04:11:29.960Z,99710.45
2023-03-12T04:13:58.639Z,99710.31
2023-03-12T04:16:28.630Z,99711.30
2023-03-12T04:18:56.878Z,99715.27
2023-03-12T04:21:25.110Z,99715.37
2023-03-12T04:23:53.393Z,99721.79
2023-03-12T04:26:24.160Z,99723.95
2023-03-12T04:28:52.663Z,99726.48
2023-03-12T04:31:20.777Z,99730.91
2023-03-12T04:33:52.053Z,99730.34
2023-03-12T04:36:22.385Z,99737.68
2023-03-12T04:38:51.453Z,99737.73
2023-03-12T04:41:22.816Z,99737.49
2023-03-12T04:43:54.750Z,99743.54
2023-03-12T04:46:23.251Z,99751.09
2023-03-12T04:48:51.645Z,99754.96
2023-03-12T04:51:20.192Z,99760.08
2023-03-12T04:53:48.201Z,99766.63
2023-03-12T04:56:16.492Z,99765.80
2023-03-12T04:58:44.804Z,99761.44
2023-03-12T05:01:27.005Z,99767.96
2023-03-12T05:03:55.509Z,99770.58
2023-03-12T05:06:25.021Z,99773.95
2023-03-12T05:08:53.721Z,99782.02
2023-03-12T05:11:22.199Z,99791.46
2023-03-12T05:13:50.370Z,99796.89
2023-03-12T05:16:19.362Z,99804.27
2023-03-12T05:18:49.183Z,99815.20
2023-03-12T05:21:20.670Z,99817.70
2023-03-12T05:23:49.345Z,99826.02
2023-03-12T05:26:24.376Z,99833.50
2023-03-12T05:28:54.498Z,99837.90
2023-03-12T05:31:24.171Z,99847.06
2023-03-12T05:33:53.157Z,99848.69
2023-03-12T05:36:21.893Z,99851.11
2023-03-12T05:38:50.484Z,99860.76
2023-03-12T05:41:28.996Z,99868.91
2023-03-12T05:44:00.449Z,99874.21
2023-03-12T05:46:29.435Z,99876.61
2023-03-12T05:48:58.706Z,99885.13
2023-03-12T05:51:27.094Z,99894.88
2023-03-12T05:53:55.370Z,99898.52
2023-03-12T05:56:23.380Z,99900.27
2023-03-12T05:58:51.428Z,99904.60
2023-03-12T06:01:25.130Z,99912.83
2023-03-12T06:03:54.563Z,99918.06
2023-03-12T06:06:26.194Z,99923.80
2023-03-12T06:08:55.166Z,99925.55
2023-03-12T06:11:23.357Z,99932.58
2023-03-12T06:13:51.474Z,99935.80
2023-03-12T06:16:22.238Z,99937.54
2023-03-12T06:18:54.536Z,99944.67
2023-03-12T06:21:25.652Z,99948.60
2023-03-12T06:23:54.187Z,99952.46
2023-03-12T06:26:29.875Z,99957.30
2023-03-12T06:28:57.863Z,99962.38
2023-03-12T06:31:26.030Z,99966.08
2023-03-12T06:33:54.405Z,99969.23
2023-03-12T06:36:24.086Z,99973.44
2023-03-12T06:38:52.030Z,99977.50
2023-03-12T06:41:21.059Z,99983.38
2023-03-12T06:43:49.397Z,99989.82
2023-03-12T06:46:21.757Z,99998.20
2023-03-12T06:48:49.859Z,100003.34
2023-03-12T06:51:18.389Z,100009.82
2023-03-12T06:53:48.919Z,100013.35
2023-03-12T06:56:17.024Z,100020.58
2023-03-12T06:58:46.652Z,100021.17
2023-03-12T07:01:24.938Z,100022.46
2023-03-12T07:03:54.573Z,100029.95
2023-03-12T07:06:24.256Z,100031.13
2023-03-12T07:08:52.510Z,100038.94
2023-03-12T07:11:20.804Z,100037.14
2023-03-12T07:13:48.698Z,100036.64
2023-03-12T07:16:16.789Z,100037.40
2023-03-12T07:18:44.810Z,100038.75
2023-03-12T07:21:12.831Z,100039.62
2023-03-12T07:23:40.758Z,100043.81
2023-03-12T07:26:08.687Z,100048.23
2023-03-12T07:28:36.579Z,100049.45
2023-03-12T07:31:05.515Z,100054.81
2023-03-12T07:33:34.182Z,100054.08
2023-03-12T07:36:03.028Z,100054.86
2023-03-12T07:38:31.276Z,100056.01
2023-03-12T07:41:00.628Z,100055.58
2023-03-12T07:43:28.811Z,100055.20
2023-03-12T07:45:56.897Z,100051.98
2023-03-12T07:48:24.967Z,100053.52
2023-03-12T07:50:53.034Z,100052.34
2023-03-12T07:53:25.050Z,100052.06
2023-03-12T07:55:53.278Z,100050.02
2023-03-12T07:58:21.492Z,100055.42
2023-03-12T08:00:49.680Z,100054.17
2023-03-12T08:03:17.830Z,100055.31
2023-03-12T08:05:46.513Z,100053.49
2023-03-12T08:08:14.670Z,100058.48
2023-03-12T08:10:42.649Z,100060.99
2023-03-12T08:13:10.675Z,100062.75
2023-03-12T08:15:41.453Z,100062.63
2023-03-12T08:18:19.394Z,100067.75
2023-03-12T08:20:50.767Z,100071.77
2023-03-12T08:23:19.330Z,100075.58
2023-03-12T08:25:48.738Z,100078.91
2023-03-12T08:28:18.444Z,100081.33
2023-03-12T08:30:55.093Z,100082.11
2023-03-12T08:33:23.034Z,100086.79
2023-03-12T08:35:51.223Z,100089.79
2023-03-12T08:38:20.172Z,100095.64
2023-03-12T08:40:58.016Z,100092.34
2023-03-12T08:43:29.213Z,100095.36
2023-03-12T08:45:59.236Z,100091.39
2023-03-12T08:48:29.245Z,100095.75
2023-03-12T08:50:59.117Z,100098.06
2023-03-12T08:53:27.924Z,100096.71
2023-03-12T08:56:13.295Z,100103.65
2023-03-12T08:58:41.259Z,100104.93
2023-03-12T09:01:11.903Z,100105.48
2023-03-12T09:03:43.430Z,100103.77
2023-03-12T09:06:16.718Z,100102.17
2023-03-12T09:08:45.012Z,100103.55
2023-03-12T09:11:14.970Z,100104.48
2023-03-12T09:14:02.748Z,100102.98
2023-03-12T09:16:31.382Z,100102.61
2023-03-12T09:18:59.340Z,100109.05
2023-03-12T09:21:27.722Z,100115.31
2023-03-12T09:23:55.634Z,100113.33
2023-03-12T09:26:24.143Z,100115.18
2023-03-12T09:28:52.026Z,100122.15
2023-03-12T09:31:20.143Z,100121.61
2023-03-12T09:33:48.063Z,100116.27
2023-03-12T09:36:16.086Z,100118.55
2023-03-12T09:38:44.062Z,100119.88
2023-03-12T09:41:25.269Z,100124.36
2023-03-12T09:44:02.126Z,100126.52
2023-03-12T09:46:37.166Z,100126.02
2023-03-12T09:49:11.403Z,100125.88
2023-03-12T09:51:43.595Z,100125.36
2023-03-12T09:54:32.569Z,100127.30
2023-03-12T09:57:09.129Z,100129.08
2023-03-12T09:59:37.281Z,100131.27
2023-03-12T10:02:45.152Z,100131.58
2023-03-12T10:05:24.295Z,100136.45
2023-03-12T10:08:32.344Z,100137.30
2023-03-12T10:11:09.346Z,100134.60
2023-03-12T10:13:49.728Z,100138.66
2023-03-12T10:16:29.854Z,100145.25
2023-03-12T10:19:26.074Z,100147.38
2023-03-12T10:22:07.628Z,100150.05
2023-03-12T10:24:54.091Z,100154.19
2023-03-12T10:27:25.873Z,100150.40
2023-03-12T10:29:55.020Z,100151.23
2023-03-12T10:32:46.501Z,100149.45
2023-03-12T10:35:21.663Z,100152.02
2023-03-12T10:38:01.913Z,100151.36
2023-03-12T10:40:34.416Z,100150.16
2023-03-12T10:43:04.127Z,100149.70
2023-03-12T10:46:01.876Z,100153.91
2023-03-12T10:48:29.765Z,100157.48
2023-03-12T10:51:07.592Z,100160.02
2023-03-12T10:53:42.923Z,100157.66
2023-03-12T10:56:14.055Z,100152.70
2023-03-12T10:58:49.434Z,100147.84
2023-03-12T11:01:24.887Z,100147.21
2023-03-12T11:04:08.467Z,100145.27
2023-03-12T11:06:36.391Z,100146.48
2023-03-12T11:09:16.643Z,100149.85
2023-03-12T11:11:48.214Z,100148.88
2023-03-12T11:14:25.509Z,100143.44
2023-03-12T11:16:54.828Z,100136.75
2023-03-12T11:19:29.306Z,100136.27
2023-03-12T11:22:03.278Z,100128.96
2023-03-12T11:24:31.384Z,100128.48
2023-03-12T11:27:07.410Z,100132.91
2023-03-12T11:29:47.098Z,100135.84
2023-03-12T11:32:28.811Z,100133.20
2023-03-12T11:34:57.326Z,100132.25
2023-03-12T11:37:46.373Z,100132.46
2023-03-12T11:40:36.479Z,100133.44
2023-03-12T11:43:07.173Z,100132.90
2023-03-12T11:45:44.827Z,100131.80
2023-03-12T11:48:19.364Z,100131.66
2023-03-12T11:50:56.000Z,100132.36
2023-03-12T11:53:36.480Z,100129.58
2023-03-12T11:56:21.201Z,100132.63
2023-03-12T11:59:04.295Z,100131.93
2023-03-12T12:01:55.441Z,100133.58
2023-03-12T12:04:35.433Z,100136.34
2023-03-12T12:07:29.043Z,100136.42
2023-03-12T12:10:00.105Z,100137.06
2023-03-12T12:12:31.135Z,100139.52
2023-03-12T12:15:15.477Z,100144.58
2023-03-12T12:18:05.224Z,100143.58
2023-03-12T12:21:06.333Z,100146.88
2023-03-12T12:24:12.593Z,100147.71
2023-03-12T12:27:03.446Z,100145.34
2023-03-12T12:30:00.692Z,100143.09
2023-03-12T12:32:50.078Z,100149.45
2023-03-12T12:35:38.109Z,100149.80
2023-03-12T12:38:31.354Z,100153.12
2023-03-12T12:41:11.269Z,100153.23
2023-03-12T12:43:42.174Z,100157.72
2023-03-12T12:46:15.249Z,100160.02
2023-03-12T12:48:47.094Z,100162.77
2023-03-12T12:51:18.226Z,100163.64
2023-03-12T12:53:49.251Z,100166.63
2023-03-12T12:56:33.134Z,100169.30
2023-03-12T12:59:10.325Z,100172.59
2023-03-12T13:01:39.328Z,100178.02
2023-03-12T13:04:19.901Z,100176.48
2023-03-12T13:06:55.253Z,100179.07
2023-03-12T13:09:36.609Z,100180.23
2023-03-12T13:12:15.168Z,100182.84
2023-03-12T13:14:45.154Z,100186.48
2023-03-12T13:17:28.311Z,100188.05
2023-03-12T13:20:11.245Z,100184.68
2023-03-12T13:22:57.844Z,100182.73
2023-03-12T13:25:47.365Z,100183.55
2023-03-12T13:28:56.819Z,100185.91
2023-03-12T13:31:27.891Z,100190.06
2023-03-12T13:34:09.047Z,100191.82
2023-03-12T13:36:37.791Z,100193.41
2023-03-12T13:39:08.750Z,100191.88
2023-03-12T13:41:39.190Z,100191.07
2023-03-12T13:44:34.148Z,100190.39
2023-03-12T13:47:11.181Z,100189.79
2023-03-12T13:49:44.961Z,100193.73
2023-03-12T13:52:22.756Z,100194.76
2023-03-12T13:54:59.795Z,100195.96
2023-03-12T13:58:06.353Z,100194.61
2023-03-12T14:00:51.189Z,100194.73
2023-03-12T14:03:35.052Z,100197.29
2023-03-12T14:06:13.948Z,100203.53
2023-03-12T14:09:03.523Z,100205.79
2023-03-12T14:11:34.327Z,100209.73
2023-03-12T14:14:26.685Z,100211.15
2023-03-12T14:16:58.204Z,100212.09
2023-03-12T14:19:29.979Z,100211.16
2023-03-12T14:22:04.062Z,100209.81
2023-03-12T14:24:33.763Z,100209.80
2023-03-12T14:27:05.016Z,100207.95
2023-03-12T14:29:43.811Z,100205.00
2023-03-12T14:32:22.625Z,100204.84
2023-03-12T14:35:12.422Z,100205.64
2023-03-12T14:37:47.436Z,100207.03
2023-03-12T14:40:21.574Z,100211.79
2023-03-12T14:42:50.107Z,100213.42
2023-03-12T14:45:21.632Z,100212.37
2023-03-12T14:47:58.042Z,100210.21
2023-03-12T14:50:37.148Z,100210.80
2023-03-12T14:53:23.837Z,100213.47
2023-03-12T14:56:07.132Z,100211.81
2023-03-12T14:58:42.615Z,100212.07
2023-03-12T15:01:14.731Z,100214.98
2023-03-12T15:03:49.337Z,100213.52
2023-03-12T15:06:29.136Z,100211.77
2023-03-12T15:08:59.803Z,100209.72
2023-03-12T15:11:28.857Z,100214.09
2023-03-12T15:14:04.567Z,100210.49
2023-03-12T15:16:33.436Z,100208.32
2023-03-12T15:19:03.828Z,100210.32
2023-03-12T15:21:34.806Z,100212.38
2023-03-12T15:24:03.074Z,100215.32
2023-03-12T15:26:34.929Z,100216.27
2023-03-12T15:29:26.449Z,100217.58
2023-03-12T15:31:58.221Z,100217.58
2023-03-12T15:34:28.295Z,100220.46
2023-03-12T15:36:56.410Z,100221.17
2023-03-12T15:39:36.096Z,100222.61
2023-03-12T15:42:16.264Z,100219.98
2023-03-12T15:45:03.386Z,100224.05
2023-03-12T15:47:34.182Z,100231.48
2023-03-12T15:50:37.664Z,100233.86
2023-03-12T15:53:28.556Z,100240.38
2023-03-12T15:56:07.649Z,100242.43
2023-03-12T15:58:38.682Z,100239.98
2023-03-12T16:01:16.778Z,100237.13
2023-03-12T16:03:46.147Z,100236.14
2023-03-12T16:06:17.547Z,100235.51
2023-03-12T16:08:53.086Z,100240.42
2023-03-12T16:11:25.691Z,100243.10
2023-03-12T16:14:03.869Z,100243.58
2023-03-12T16:16:32.387Z,100251.55
2023-03-12T16:19:00.600Z,100254.84
2023-03-12T16:21:28.618Z,100259.70
2023-03-12T16:23:56.559Z,100262.55
2023-03-12T16:26:24.482Z,100266.52
2023-03-12T16:28:52.562Z,100267.25
2023-03-12T16:31:20.572Z,100269.72
2023-03-12T16:33:48.567Z,100270.16
2023-03-12T16:36:19.264Z,100269.80
2023-03-12T16:38:47.985Z,100272.36
2023-03-12T16:41:18.244Z,100277.39
2023-03-12T16:43:50.327Z,100279.98
2023-03-12T16:46:21.000Z,100285.17
2023-03-12T16:48:53.612Z,100291.70
2023-03-12T16:51:22.860Z,100294.42
2023-03-12T16:54:06.776Z,100297.52
2023-03-12T16:56:40.672Z,100302.48
2023-03-12T16:59:14.464Z,100303.04
2023-03-12T17:01:42.835Z,100308.00
2023-03-12T17:04:11.719Z,100311.50
2023-03-12T17:06:40.566Z,100314.66
2023-03-12T17:09:09.151Z,100317.03
2023-03-12T17:11:38.231Z,100318.11
2023-03-12T17:14:26.100Z,100318.17
2023-03-12T17:16:57.292Z,100325.83
2023-03-12T17:19:25.932Z,100335.09
2023-03-12T17:21:53.980Z,100340.31
2023-03-12T17:24:28.109Z,100342.55
2023-03-12T17:26:58.112Z,100345.69
2023-03-12T17:29:26.593Z,100349.67
2023-03-12T17:31:54.654Z,100352.67
2023-03-12T17:34:22.868Z,100352.86
2023-03-12T17:36:51.121Z,100358.99
2023-03-12T17:39:19.386Z,100363.73
2023-03-12T17:41:47.769Z,100367.90
2023-03-12T17:44:16.499Z,100371.10
2023-03-12T17:46:58.521Z,100367.73
2023-03-12T17:49:28.756Z,100372.45
2023-03-12T17:51:57.042Z,100369.93
2023-03-12T17:54:25.062Z,100373.34
2023-03-12T17:56:53.120Z,100377.77
2023-03-12T17:59:21.333Z,100380.59
2023-03-12T18:01:52.811Z,100386.52
2023-03-12T18:04:20.890Z,100388.07
2023-03-12T18:06:49.953Z,100390.42
2023-03-12T18:09:17.827Z,100400.04
2023-03-12T18:11:45.942Z,100403.60
2023-03-12T18:14:14.074Z,100407.18
2023-03-12T18:16:42.091Z,100401.89
2023-03-12T18:19:10.251Z,100404.91
2023-03-12T18:21:38.159Z,100407.05
2023-03-12T18:24:13.988Z,100406.58
2023-03-12T18:26:42.888Z,100409.16
2023-03-12T18:29:11.129Z,100410.48
2023-03-12T18:31:39.535Z,100409.91
2023-03-12T18:34:07.597Z,100414.77
2023-03-12T18:36:35.755Z,100415.39
2023-03-12T18:39:05.067Z,100412.23
2023-03-12T18:41:33.426Z,100415.83
2023-03-12T18:44:01.771Z,100418.58
2023-03-12T18:46:29.955Z,100419.52
2023-03-12T18:49:04.595Z,100421.84
2023-03-12T18:51:32.635Z,100424.05
2023-03-12T18:54:01.110Z,100426.52
2023-03-12T18:56:29.236Z,100430.03
2023-03-12T18:58:57.244Z,100429.75
2023-03-12T19:01:26.289Z,100431.78
2023-03-12T19:03:54.744Z,100433.20
2023-03-12T19:06:22.770Z,100429.06
2023-03-12T19:08:50.630Z,100429.82
2023-03-12T19:11:18.540Z,100435.36
2023-03-12T19:13:52.298Z,100439.55
2023-03-12T19:16:22.120Z,100439.35
2023-03-12T19:18:51.056Z,100438.52
2023-03-12T19:21:19.117Z,100441.13
2023-03-12T19:23:47.663Z,100441.49
2023-03-12T19:26:16.414Z,100438.22
2023-03-12T19:28:44.756Z,100440.45
2023-03-12T19:31:15.229Z,100444.34
2023-03-12T19:33:45.085Z,100445.84
2023-03-12T19:36:13.710Z,100445.16
2023-03-12T19:38:42.153Z,100449.98
2023-03-12T19:41:10.424Z,100452.49
2023-03-12T19:43:38.642Z,100452.44
2023-03-12T19:46:07.710Z,100450.79
2023-03-12T19:48:35.951Z,100451.91
2023-03-12T19:51:10.297Z,100456.01
2023-03-12T19:53:38.880Z,100455.25
2023-03-12T19:56:07.781Z,100456.42
2023-03-12T19:58:36.137Z,100466.15
2023-03-12T20:01:04.931Z,100468.11
2023-03-12T20:03:33.308Z,100467.94
2023-03-12T20:06:01.461Z,100470.73
2023-03-12T20:08:32.304Z,100468.49
2023-03-12T20:11:11.432Z,100471.69
2023-03-12T20:13:39.966Z,100473.59
2023-03-12T20:16:08.904Z,100472.66
2023-03-12T20:18:37.457Z,100474.71
2023-03-12T20:21:06.266Z,100475.13
2023-03-12T20:23:34.850Z,100477.38
2023-03-12T20:26:03.884Z,100476.81
2023-03-12T20:28:32.606Z,100479.82
2023-03-12T20:31:11.777Z,100479.17
2023-03-12T20:33:42.409Z,100480.36
2023-03-12T20:36:13.400Z,100484.54
2023-03-12T20:38:41.833Z,100484.66
2023-03-12T20:41:14.876Z,100485.86
2023-03-12T20:43:44.345Z,100487.30
2023-03-12T20:46:14.087Z,100489.14
2023-03-12T20:48:44.554Z,100485.20
2023-03-12T20:51:12.628Z,100482.44
2023-03-12T20:53:40.780Z,100484.97
2023-03-12T20:56:09.035Z,100487.45
2023-03-12T20:58:37.506Z,100488.16
2023-03-12T21:01:05.969Z,100489.09
2023-03-12T21:03:34.076Z,100495.38
2023-03-12T21:06:08.523Z,100500.92
2023-03-12T21:08:36.512Z,100500.80
2023-03-12T21:11:07.830Z,100492.58
2023-03-12T21:13:36.289Z,100490.66
2023-03-12T21:16:09.150Z,100490.88
2023-03-12T21:18:37.288Z,100478.24
2023-03-12T21:21:07.491Z,100470.24
2023-03-12T21:23:36.307Z,100459.33
2023-03-12T21:26:09.377Z,100466.15
2023-03-12T21:28:37.834Z,100475.72
2023-03-12T21:31:08.935Z,100476.08
2023-03-12T21:33:36.961Z,100475.34
2023-03-12T21:36:06.747Z,100479.45
2023-03-12T21:38:36.702Z,100484.52
2023-03-12T21:41:12.475Z,100483.52
2023-03-12T21:43:41.149Z,100481.54
2023-03-12T21:46:15.885Z,100487.09
2023-03-12T21:48:46.140Z,100496.73
2023-03-12T21:51:16.735Z,100503.69
2023-03-12T21:53:47.879Z,100507.55
2023-03-12T21:56:16.777Z,100506.42
2023-03-12T21:58:48.462Z,100511.27
2023-03-12T22:01:20.747Z,100519.50
2023-03-12T22:03:49.160Z,100522.70
2023-03-12T22:06:17.325Z,100523.33
2023-03-12T22:08:49.875Z,100522.63
2023-03-12T22:11:18.821Z,100522.73
2023-03-12T22:13:47.221Z,100527.71
2023-03-12T22:16:16.233Z,100529.92
2023-03-12T22:18:46.416Z,100526.11
2023-03-12T22:21:17.213Z,100526.98
2023-03-12T22:23:50.936Z,100535.09
2023-03-12T22:26:20.828Z,100543.27
2023-03-12T22:28:54.804Z,100543.10
2023-03-12T22:31:26.128Z,100531.58
2023-03-12T22:33:54.599Z,100526.63
2023-03-12T22:36:23.333Z,100517.20
2023-03-12T22:38:51.761Z,100506.69
2023-03-12T22:41:26.185Z,100507.15
2023-03-12T22:43:56.295Z,100501.69
2023-03-12T22:46:25.928Z,100504.14
2023-03-12T22:48:56.725Z,100513.34
2023-03-12T22:51:26.129Z,100515.67
2023-03-12T22:53:54.597Z,100515.48
2023-03-12T22:56:23.262Z,100514.67
2023-03-12T22:58:51.661Z,100509.29
2023-03-12T23:01:22.137Z,100509.50
2023-03-12T23:03:51.216Z,100514.70
2023-03-12T23:06:20.483Z,100523.27
2023-03-12T23:08:49.536Z,100528.14
2023-03-12T23:11:19.669Z,100524.46
2023-03-12T23:13:49.260Z,100525.92
2023-03-12T23:16:23.992Z,100535.48
2023-03-12T23:18:52.412Z,100533.09
2023-03-12T23:21:22.911Z,100533.59
2023-03-12T23:23:51.006Z,100538.64
2023-03-12T23:26:24.544Z,100538.38
2023-03-12T23:28:57.693Z,100538.94
2023-03-12T23:31:27.809Z,100541.01
2023-03-12T23:33:57.239Z,100533.79
2023-03-12T23:36:25.941Z,100530.21
2023-03-12T23:38:53.829Z,100535.30
2023-03-12T23:41:27.028Z,100542.47
2023-03-12T23:43:56.220Z,100548.91
2023-03-12T23:46:24.643Z,100549.77
2023-03-12T23:48:52.930Z,100554.36
2023-03-12T23:51:24.549Z,100560.65
2023-03-12T23:53:56.633Z,100563.27
2023-03-12T23:56:29.617Z,100561.64
2023-03-12T23:58:57.785Z,100566.95
